createdAt,value
2017-06-21T00:00:33.363Z,1009.42
2017-06-21T00:01:33.425Z,1009.43
2017-06-21T00:02:33.442Z,1009.39
2017-06-21T00:03:33.450Z,1009.40
2017-06-21T00:04:33.410Z,1009.40
2017-06-21T00:05:33.456Z,1009.40
2017-06-21T00:06:33.456Z,1009.38
2017-06-21T00:07:33.451Z,1009.42
2017-06-21T00:08:33.453Z,1009.43
2017-06-21T00:09:33.358Z,1009.39
2017-06-21T00:10:33.425Z,1009.39
2017-06-21T00:11:33.407Z,1009.34
2017-06-21T00:12:33.413Z,1009.41
2017-06-21T00:13:33.369Z,1009.41
2017-06-21T00:14:33.425Z,1009.33
2017-06-21T00:15:33.447Z,1009.31
2017-06-21T00:16:33.463Z,1009.41
2017-06-21T00:17:33.370Z,1009.38
2017-06-21T00:18:33.445Z,1009.40
2017-06-21T00:19:33.370Z,1009.47
2017-06-21T00:20:33.471Z,1009.46
2017-06-21T00:21:33.453Z,1009.48
2017-06-21T00:22:33.452Z,1009.49
2017-06-21T00:23:33.431Z,1009.53
2017-06-21T00:24:33.460Z,1009.54
2017-06-21T00:25:33.452Z,1009.50
2017-06-21T00:26:33.448Z,1009.52
2017-06-21T00:27:33.476Z,1009.54
2017-06-21T00:28:33.456Z,1009.51
2017-06-21T00:29:33.445Z,1009.52
2017-06-21T00:30:33.375Z,1009.53
2017-06-21T00:31:33.398Z,1009.52
2017-06-21T00:32:33.532Z,1009.50
2017-06-21T00:33:33.457Z,1009.48
2017-06-21T00:34:33.463Z,1009.49
2017-06-21T00:35:33.446Z,1009.43
2017-06-21T00:36:33.376Z,1009.44
2017-06-21T00:37:33.379Z,1009.46
2017-06-21T00:38:33.426Z,1009.51
2017-06-21T00:39:33.475Z,1009.46
2017-06-21T00:40:33.448Z,1009.48
2017-06-21T00:41:33.375Z,1009.57
2017-06-21T00:42:33.452Z,1009.59
2017-06-21T00:43:33.390Z,1009.54
2017-06-21T00:44:33.466Z,1009.53
2017-06-21T00:45:33.476Z,1009.49
2017-06-21T00:46:33.386Z,1009.47
2017-06-21T00:47:33.460Z,1009.48
2017-06-21T00:48:33.466Z,1009.46
2017-06-21T00:49:33.466Z,1009.49
2017-06-21T00:50:33.404Z,1009.45
2017-06-21T00:51:33.477Z,1009.44
2017-06-21T00:52:33.388Z,1009.42
2017-06-21T00:53:33.467Z,1009.44
2017-06-21T00:54:33.476Z,1009.46
2017-06-21T00:55:33.477Z,1009.40
2017-06-21T00:56:33.440Z,1009.45
2017-06-21T00:57:33.440Z,1009.39
2017-06-21T00:58:33.441Z,1009.37
2017-06-21T00:59:33.444Z,1009.40
2017-06-21T01:00:33.443Z,1009.40
2017-06-21T01:01:33.445Z,1009.37
2017-06-21T01:02:33.443Z,1009.38
2017-06-21T01:03:33.447Z,1009.37
2017-06-21T01:04:33.445Z,1009.32
2017-06-21T01:05:33.447Z,1009.35
2017-06-21T01:06:33.479Z,1009.42
2017-06-21T01:07:33.397Z,1009.38
2017-06-21T01:08:33.472Z,1009.41
2017-06-21T01:09:33.481Z,1009.39
2017-06-21T01:10:33.473Z,1009.41
2017-06-21T01:11:33.477Z,1009.38
2017-06-21T01:12:33.478Z,1009.43
2017-06-21T01:13:33.395Z,1009.41
2017-06-21T01:14:33.446Z,1009.41
2017-06-21T01:15:33.477Z,1009.42
2017-06-21T01:16:33.466Z,1009.41
2017-06-21T01:17:33.470Z,1009.46
2017-06-21T01:18:33.546Z,1009.47
2017-06-21T01:19:33.472Z,1009.44
2017-06-21T01:20:33.482Z,1009.44
2017-06-21T01:21:33.482Z,1009.50
2017-06-21T01:22:33.472Z,1009.41
2017-06-21T01:23:33.381Z,1009.43
2017-06-21T01:24:33.471Z,1009.43
2017-06-21T01:25:33.473Z,1009.44
2017-06-21T01:26:33.446Z,1009.38
2017-06-21T01:27:33.486Z,1009.45
2017-06-21T01:28:33.406Z,1009.46
2017-06-21T01:29:33.409Z,1009.48
2017-06-21T01:30:33.491Z,1009.48
2017-06-21T01:31:33.492Z,1009.45
2017-06-21T01:32:33.502Z,1009.46
2017-06-21T01:33:33.484Z,1009.48
2017-06-21T01:34:33.493Z,1009.42
2017-06-21T01:36:33.451Z,1009.45
2017-06-21T01:37:33.493Z,1009.45
2017-06-21T01:38:33.503Z,1009.41
2017-06-21T01:39:33.457Z,1009.45
2017-06-21T01:40:33.480Z,1009.41
2017-06-21T01:41:33.499Z,1009.44
2017-06-21T01:42:33.489Z,1009.44
2017-06-21T01:43:33.489Z,1009.48
2017-06-21T01:44:33.494Z,1009.43
2017-06-21T01:45:33.467Z,1009.48
2017-06-21T01:46:33.496Z,1009.44
2017-06-21T01:47:33.482Z,1009.46
2017-06-21T01:48:33.464Z,1009.40
2017-06-21T01:49:33.483Z,1009.40
2017-06-21T01:50:33.487Z,1009.39
2017-06-21T01:51:33.483Z,1009.36
2017-06-21T01:52:33.487Z,1009.37
2017-06-21T01:53:33.483Z,1009.36
2017-06-21T01:54:33.485Z,1009.34
2017-06-21T01:55:33.482Z,1009.34
2017-06-21T01:56:33.425Z,1009.36
2017-06-21T01:57:33.468Z,1009.33
2017-06-21T01:58:33.423Z,1009.35
2017-06-21T01:59:33.494Z,1009.39
2017-06-21T02:00:33.515Z,1009.33
2017-06-21T02:01:33.427Z,1009.43
2017-06-21T02:02:33.617Z,1009.42
2017-06-21T02:03:33.506Z,1009.41
2017-06-21T02:04:33.417Z,1009.44
2017-06-21T02:05:33.509Z,1009.43
2017-06-21T02:06:33.398Z,1009.45
2017-06-21T02:07:33.377Z,1009.45
2017-06-21T02:08:33.400Z,1009.47
2017-06-21T02:09:33.453Z,1009.49
2017-06-21T02:10:33.454Z,1009.53
2017-06-21T02:11:33.397Z,1009.51
2017-06-21T02:12:33.371Z,1009.55
2017-06-21T02:13:33.419Z,1009.56
2017-06-21T02:14:33.436Z,1009.56
2017-06-21T02:15:33.403Z,1009.53
2017-06-21T02:16:33.518Z,1009.51
2017-06-21T02:17:33.518Z,1009.56
2017-06-21T02:18:33.515Z,1009.55
2017-06-21T02:19:33.516Z,1009.57
2017-06-21T02:20:33.452Z,1009.58
2017-06-21T02:21:33.486Z,1009.56
2017-06-21T02:22:33.476Z,1009.49
2017-06-21T02:23:33.434Z,1009.56
2017-06-21T02:24:33.436Z,1009.52
2017-06-21T02:25:33.520Z,1009.59
2017-06-21T02:26:33.515Z,1009.60
2017-06-21T02:27:33.522Z,1009.65
2017-06-21T02:28:33.508Z,1009.64
2017-06-21T02:29:33.521Z,1009.64
2017-06-21T02:30:33.518Z,1009.60
2017-06-21T02:31:33.484Z,1009.63
2017-06-21T02:32:33.439Z,1009.62
2017-06-21T02:33:33.537Z,1009.61
2017-06-21T02:34:33.524Z,1009.64
2017-06-21T02:35:33.449Z,1009.63
2017-06-21T02:36:33.511Z,1009.62
2017-06-21T02:37:33.516Z,1009.65
2017-06-21T02:38:33.527Z,1009.66
2017-06-21T02:39:33.527Z,1009.66
2017-06-21T02:40:33.558Z,1009.65
2017-06-21T02:41:33.531Z,1009.66
2017-06-21T02:42:33.491Z,1009.65
2017-06-21T02:43:33.449Z,1009.65
2017-06-21T02:44:33.533Z,1009.63
2017-06-21T02:45:33.524Z,1009.63
2017-06-21T02:46:33.536Z,1009.59
2017-06-21T02:47:33.531Z,1009.59
2017-06-21T02:48:33.447Z,1009.56
2017-06-21T02:49:33.449Z,1009.59
2017-06-21T02:50:33.528Z,1009.58
2017-06-21T02:51:33.446Z,1009.57
2017-06-21T02:52:33.533Z,1009.59
2017-06-21T02:53:33.537Z,1009.63
2017-06-21T02:54:33.499Z,1009.54
2017-06-21T02:55:33.529Z,1009.58
2017-06-21T02:56:33.522Z,1009.60
2017-06-21T02:57:33.506Z,1009.59
2017-06-21T02:58:33.509Z,1009.61
2017-06-21T02:59:33.507Z,1009.61
2017-06-21T03:00:33.511Z,1009.59
2017-06-21T03:01:33.509Z,1009.59
2017-06-21T03:02:33.509Z,1009.60
2017-06-21T03:03:33.509Z,1009.58
2017-06-21T03:04:33.510Z,1009.62
2017-06-21T03:05:33.509Z,1009.65
2017-06-21T03:06:33.512Z,1009.67
2017-06-21T03:07:33.526Z,1009.67
2017-06-21T03:08:33.527Z,1009.62
2017-06-21T03:09:33.478Z,1009.61
2017-06-21T03:10:33.528Z,1009.61
2017-06-21T03:11:33.530Z,1009.66
2017-06-21T03:12:33.448Z,1009.66
2017-06-21T03:13:33.531Z,1009.70
2017-06-21T03:14:33.530Z,1009.67
2017-06-21T03:15:33.547Z,1009.69
2017-06-21T03:16:33.531Z,1009.73
2017-06-21T03:17:33.528Z,1009.69
2017-06-21T03:18:33.529Z,1009.73
2017-06-21T03:19:33.536Z,1009.67
2017-06-21T03:20:33.630Z,1009.67
2017-06-21T03:21:33.531Z,1009.68
2017-06-21T03:22:33.460Z,1009.66
2017-06-21T03:23:33.538Z,1009.61
2017-06-21T03:24:33.531Z,1009.62
2017-06-21T03:25:33.535Z,1009.59
2017-06-21T03:26:33.532Z,1009.60
2017-06-21T03:27:33.552Z,1009.61
2017-06-21T03:28:33.475Z,1009.60
2017-06-21T03:29:33.657Z,1009.61
2017-06-21T03:30:33.469Z,1009.64
2017-06-21T03:31:33.472Z,1009.66
2017-06-21T03:32:33.559Z,1009.70
2017-06-21T03:33:33.469Z,1009.68
2017-06-21T03:34:33.515Z,1009.69
2017-06-21T03:35:33.472Z,1009.60
2017-06-21T03:36:33.565Z,1009.65
2017-06-21T03:37:33.535Z,1009.67
2017-06-21T03:38:33.571Z,1009.65
2017-06-21T03:39:33.475Z,1009.68
2017-06-21T03:40:33.552Z,1009.66
2017-06-21T03:41:33.562Z,1009.70
2017-06-21T03:42:33.556Z,1009.65
2017-06-21T03:43:33.554Z,1009.67
2017-06-21T03:44:33.572Z,1009.60
2017-06-21T03:45:33.548Z,1009.60
2017-06-21T03:46:33.565Z,1009.63
2017-06-21T03:47:33.563Z,1009.65
2017-06-21T03:48:33.570Z,1009.63
2017-06-21T03:49:33.559Z,1009.60
2017-06-21T03:50:33.567Z,1009.63
2017-06-21T03:51:33.573Z,1009.59
2017-06-21T03:52:33.479Z,1009.57
2017-06-21T03:53:33.480Z,1009.60
2017-06-21T03:54:33.569Z,1009.53
2017-06-21T03:55:33.541Z,1009.58
2017-06-21T03:56:33.524Z,1009.59
2017-06-21T03:57:33.488Z,1009.59
2017-06-21T03:58:33.562Z,1009.57
2017-06-21T03:59:33.574Z,1009.54
2017-06-21T04:00:33.490Z,1009.54
2017-06-21T04:01:33.567Z,1009.59
2017-06-21T04:02:33.571Z,1009.57
2017-06-21T04:03:33.490Z,1009.60
2017-06-21T04:04:33.581Z,1009.61
2017-06-21T04:05:33.491Z,1009.56
2017-06-21T04:06:33.575Z,1009.60
2017-06-21T04:07:33.581Z,1009.55
2017-06-21T04:08:33.569Z,1009.59
2017-06-21T04:09:33.578Z,1009.55
2017-06-21T04:10:33.571Z,1009.60
2017-06-21T04:11:33.576Z,1009.56
2017-06-21T04:12:33.538Z,1009.57
2017-06-21T04:13:33.639Z,1009.58
2017-06-21T04:14:33.497Z,1009.56
2017-06-21T04:15:33.491Z,1009.58
2017-06-21T04:16:33.496Z,1009.62
2017-06-21T04:17:33.528Z,1009.59
2017-06-21T04:18:33.463Z,1009.61
2017-06-21T04:19:33.532Z,1009.59
2017-06-21T04:20:33.537Z,1009.64
2017-06-21T04:21:33.496Z,1009.66
2017-06-21T04:22:33.587Z,1009.68
2017-06-21T04:23:33.487Z,1009.68
2017-06-21T04:24:33.544Z,1009.72
2017-06-21T04:25:33.474Z,1009.69
2017-06-21T04:26:33.478Z,1009.69
2017-06-21T04:27:33.579Z,1009.70
2017-06-21T04:28:33.585Z,1009.69
2017-06-21T04:29:33.590Z,1009.75
2017-06-21T04:30:33.582Z,1009.72
2017-06-21T04:31:33.591Z,1009.77
2017-06-21T04:32:33.596Z,1009.76
2017-06-21T04:33:33.506Z,1009.75
2017-06-21T04:34:33.580Z,1009.79
2017-06-21T04:35:33.565Z,1009.77
2017-06-21T04:36:33.569Z,1009.82
2017-06-21T04:37:33.593Z,1009.80
2017-06-21T04:38:33.589Z,1009.80
2017-06-21T04:39:33.510Z,1009.74
2017-06-21T04:40:33.517Z,1009.78
2017-06-21T04:41:33.594Z,1009.79
2017-06-21T04:42:33.572Z,1009.77
2017-06-21T04:43:33.611Z,1009.74
2017-06-21T04:44:33.511Z,1009.73
2017-06-21T04:45:33.602Z,1009.73
2017-06-21T04:46:33.507Z,1009.67
2017-06-21T04:47:33.577Z,1009.69
2017-06-21T04:48:33.575Z,1009.66
2017-06-21T04:49:33.578Z,1009.68
2017-06-21T04:50:33.578Z,1009.66
2017-06-21T04:51:33.574Z,1009.67
2017-06-21T04:52:33.578Z,1009.67
2017-06-21T04:53:33.578Z,1009.69
2017-06-21T04:54:33.578Z,1009.68
2017-06-21T04:55:33.584Z,1009.68
2017-06-21T04:56:33.579Z,1009.71
2017-06-21T04:57:33.603Z,1009.70
2017-06-21T04:58:33.581Z,1009.69
2017-06-21T04:59:33.525Z,1009.74
2017-06-21T05:00:33.593Z,1009.73
2017-06-21T05:01:33.706Z,1009.74
2017-06-21T05:02:33.512Z,1009.77
2017-06-21T05:03:33.606Z,1009.76
2017-06-21T05:04:33.604Z,1009.80
2017-06-21T05:05:33.607Z,1009.77
2017-06-21T05:06:33.606Z,1009.79
2017-06-21T05:07:33.573Z,1009.76
2017-06-21T05:08:33.574Z,1009.74
2017-06-21T05:09:33.576Z,1009.73
2017-06-21T05:10:33.576Z,1009.69
2017-06-21T05:11:33.578Z,1009.70
2017-06-21T05:12:33.581Z,1009.71
2017-06-21T05:13:33.579Z,1009.65
2017-06-21T05:14:33.576Z,1009.67
2017-06-21T05:15:33.581Z,1009.69
2017-06-21T05:16:33.585Z,1009.70
2017-06-21T05:17:33.587Z,1009.64
2017-06-21T05:18:33.618Z,1009.67
2017-06-21T05:19:33.615Z,1009.66
2017-06-21T05:20:33.527Z,1009.71
2017-06-21T05:21:33.525Z,1009.65
2017-06-21T05:22:33.533Z,1009.66
2017-06-21T05:23:33.626Z,1009.73
2017-06-21T05:24:33.538Z,1009.67
2017-06-21T05:25:33.609Z,1009.70
2017-06-21T05:26:33.595Z,1009.72
2017-06-21T05:27:33.619Z,1009.69
2017-06-21T05:28:33.600Z,1009.73
2017-06-21T05:29:33.600Z,1009.71
2017-06-21T05:30:33.706Z,1009.75
2017-06-21T05:31:33.604Z,1009.78
2017-06-21T05:32:33.604Z,1009.81
2017-06-21T05:33:33.604Z,1009.74
2017-06-21T05:34:33.606Z,1009.77
2017-06-21T05:35:33.604Z,1009.74
2017-06-21T05:36:33.543Z,1009.78
2017-06-21T05:37:33.604Z,1009.80
2017-06-21T05:38:33.605Z,1009.79
2017-06-21T05:39:33.606Z,1009.81
2017-06-21T05:40:33.609Z,1009.78
2017-06-21T05:41:33.608Z,1009.80
2017-06-21T05:42:33.613Z,1009.79
2017-06-21T05:43:33.610Z,1009.78
2017-06-21T05:44:33.610Z,1009.75
2017-06-21T05:45:33.608Z,1009.80
2017-06-21T05:46:33.609Z,1009.73
2017-06-21T05:47:33.610Z,1009.73
2017-06-21T05:48:33.608Z,1009.73
2017-06-21T05:49:33.607Z,1009.67
2017-06-21T05:50:33.611Z,1009.69
2017-06-21T05:51:33.611Z,1009.72
2017-06-21T05:52:33.610Z,1009.65
2017-06-21T05:53:33.613Z,1009.71
2017-06-21T05:54:33.533Z,1009.68
2017-06-21T05:55:33.581Z,1009.72
2017-06-21T05:56:33.535Z,1009.70
2017-06-21T05:57:33.536Z,1009.73
2017-06-21T05:58:33.531Z,1009.68
2017-06-21T05:59:33.536Z,1009.71
2017-06-21T06:00:33.532Z,1009.71
2017-06-21T06:01:33.576Z,1009.73
2017-06-21T06:02:33.682Z,1009.74
2017-06-21T06:03:33.620Z,1009.65
2017-06-21T06:04:33.616Z,1009.70
2017-06-21T06:05:33.621Z,1009.67
2017-06-21T06:06:33.619Z,1009.75
2017-06-21T06:07:33.620Z,1009.73
2017-06-21T06:08:33.623Z,1009.72
2017-06-21T06:09:33.619Z,1009.77
2017-06-21T06:10:33.622Z,1009.72
2017-06-21T06:11:33.623Z,1009.73
2017-06-21T06:12:33.643Z,1009.72
2017-06-21T06:13:33.591Z,1009.78
2017-06-21T06:14:33.629Z,1009.77
2017-06-21T06:15:33.593Z,1009.74
2017-06-21T06:16:33.551Z,1009.75
2017-06-21T06:17:33.543Z,1009.75
2017-06-21T06:18:33.589Z,1009.70
2017-06-21T06:19:33.587Z,1009.75
2017-06-21T06:20:33.608Z,1009.76
2017-06-21T06:21:33.587Z,1009.77
2017-06-21T06:22:33.556Z,1009.76
2017-06-21T06:23:33.596Z,1009.79
2017-06-21T06:24:33.618Z,1009.85
2017-06-21T06:25:33.619Z,1009.74
2017-06-21T06:26:33.617Z,1009.78
2017-06-21T06:27:33.620Z,1009.76
2017-06-21T06:28:33.619Z,1009.76
2017-06-21T06:29:33.620Z,1009.76
2017-06-21T06:30:33.620Z,1009.82
2017-06-21T06:31:33.622Z,1009.80
2017-06-21T06:32:33.623Z,1009.78
2017-06-21T06:33:33.626Z,1009.76
2017-06-21T06:34:33.589Z,1009.84
2017-06-21T06:35:33.607Z,1009.77
2017-06-21T06:36:33.544Z,1009.74
2017-06-21T06:37:33.593Z,1009.81
2017-06-21T06:38:33.608Z,1009.79
2017-06-21T06:39:33.600Z,1009.80
2017-06-21T06:40:33.556Z,1009.80
2017-06-21T06:41:33.600Z,1009.78
2017-06-21T06:42:33.560Z,1009.78
2017-06-21T06:43:33.612Z,1009.78
2017-06-21T06:44:33.580Z,1009.76
2017-06-21T06:45:33.658Z,1009.76
2017-06-21T06:46:33.666Z,1009.74
2017-06-21T06:47:33.642Z,1009.76
2017-06-21T06:48:33.643Z,1009.74
2017-06-21T06:49:33.623Z,1009.75
2017-06-21T06:50:33.584Z,1009.76
2017-06-21T06:51:33.667Z,1009.78
2017-06-21T06:52:33.664Z,1009.80
2017-06-21T06:53:33.665Z,1009.77
2017-06-21T06:54:33.645Z,1009.79
2017-06-21T06:55:33.646Z,1009.79
2017-06-21T06:56:33.648Z,1009.81
2017-06-21T06:57:33.648Z,1009.80
2017-06-21T06:58:33.648Z,1009.79
2017-06-21T06:59:33.651Z,1009.81
2017-06-21T07:00:33.651Z,1009.78
2017-06-21T07:01:33.651Z,1009.75
2017-06-21T07:02:33.633Z,1009.78
2017-06-21T07:03:33.655Z,1009.75
2017-06-21T07:04:33.688Z,1009.70
2017-06-21T07:05:33.673Z,1009.71
2017-06-21T07:06:33.671Z,1009.75
2017-06-21T07:07:33.665Z,1009.69
2017-06-21T07:08:33.647Z,1009.74
2017-06-21T07:09:33.637Z,1009.73
2017-06-21T07:10:33.672Z,1009.71
2017-06-21T07:11:33.651Z,1009.74
2017-06-21T07:12:33.653Z,1009.70
2017-06-21T07:13:33.598Z,1009.69
2017-06-21T07:14:33.657Z,1009.67
2017-06-21T07:15:33.654Z,1009.62
2017-06-21T07:16:33.684Z,1009.63
2017-06-21T07:17:33.660Z,1009.63
2017-06-21T07:18:33.658Z,1009.64
2017-06-21T07:19:33.659Z,1009.59
2017-06-21T07:20:33.663Z,1009.53
2017-06-21T07:21:33.661Z,1009.59
2017-06-21T07:22:33.662Z,1009.54
2017-06-21T07:23:33.662Z,1009.56
2017-06-21T07:24:33.682Z,1009.56
2017-06-21T07:25:33.681Z,1009.53
2017-06-21T07:26:33.606Z,1009.53
2017-06-21T07:27:33.661Z,1009.55
2017-06-21T07:28:33.663Z,1009.50
2017-06-21T07:29:33.606Z,1009.49
2017-06-21T07:30:33.663Z,1009.48
2017-06-21T07:31:33.686Z,1009.48
2017-06-21T07:32:33.602Z,1009.46
2017-06-21T07:33:33.605Z,1009.47
2017-06-21T07:34:33.666Z,1009.44
2017-06-21T07:35:33.605Z,1009.45
2017-06-21T07:36:33.683Z,1009.41
2017-06-21T07:37:33.680Z,1009.44
2017-06-21T07:38:33.693Z,1009.43
2017-06-21T07:39:33.607Z,1009.44
2017-06-21T07:40:33.690Z,1009.44
2017-06-21T07:41:33.607Z,1009.43
2017-06-21T07:42:33.694Z,1009.43
2017-06-21T07:43:33.607Z,1009.46
2017-06-21T07:44:33.691Z,1009.44
2017-06-21T07:45:33.603Z,1009.45
2017-06-21T07:46:33.688Z,1009.43
2017-06-21T07:47:33.683Z,1009.49
2017-06-21T07:48:33.610Z,1009.47
2017-06-21T07:49:33.612Z,1009.45
2017-06-21T07:50:33.696Z,1009.39
2017-06-21T07:51:33.668Z,1009.42
2017-06-21T07:52:33.655Z,1009.38
2017-06-21T07:53:33.701Z,1009.41
2017-06-21T07:54:33.645Z,1009.43
2017-06-21T07:55:33.598Z,1009.41
2017-06-21T07:56:33.599Z,1009.41
2017-06-21T07:57:33.746Z,1009.40
2017-06-21T07:58:33.647Z,1009.36
2017-06-21T07:59:33.642Z,1009.28
2017-06-21T08:00:33.602Z,1009.33
2017-06-21T08:01:33.604Z,1009.28
2017-06-21T08:02:33.603Z,1009.25
2017-06-21T08:03:33.695Z,1009.21
2017-06-21T08:04:33.662Z,1009.24
2017-06-21T08:05:33.706Z,1009.22
2017-06-21T08:06:33.703Z,1009.22
2017-06-21T08:07:33.678Z,1009.22
2017-06-21T08:08:33.712Z,1009.26
2017-06-21T08:09:33.706Z,1009.25
2017-06-21T08:10:33.687Z,1009.27
2017-06-21T08:11:33.709Z,1009.20
2017-06-21T08:12:33.668Z,1009.19
2017-06-21T08:13:33.708Z,1009.16
2017-06-21T08:14:33.619Z,1009.20
2017-06-21T08:15:33.714Z,1009.22
2017-06-21T08:16:33.691Z,1009.18
2017-06-21T08:17:33.630Z,1009.13
2017-06-21T08:18:33.638Z,1009.19
2017-06-21T08:19:33.633Z,1009.21
2017-06-21T08:20:33.628Z,1009.22
2017-06-21T08:21:33.715Z,1009.19
2017-06-21T08:22:33.632Z,1009.23
2017-06-21T08:23:33.695Z,1009.19
2017-06-21T08:24:33.633Z,1009.14
2017-06-21T08:25:33.715Z,1009.14
2017-06-21T08:26:33.680Z,1009.13
2017-06-21T08:27:33.716Z,1009.15
2017-06-21T08:28:33.717Z,1009.15
2017-06-21T08:29:33.639Z,1009.16
2017-06-21T08:30:33.693Z,1009.14
2017-06-21T08:31:33.718Z,1009.17
2017-06-21T08:32:33.724Z,1009.15
2017-06-21T08:33:33.715Z,1009.16
2017-06-21T08:34:33.715Z,1009.15
2017-06-21T08:35:33.700Z,1009.10
2017-06-21T08:36:33.643Z,1009.13
2017-06-21T08:37:33.727Z,1009.15
2017-06-21T08:38:33.727Z,1009.13
2017-06-21T08:39:33.647Z,1009.09
2017-06-21T08:40:33.661Z,1009.09
2017-06-21T08:41:33.725Z,1009.12
2017-06-21T08:42:33.640Z,1009.11
2017-06-21T08:43:33.727Z,1009.14
2017-06-21T08:44:33.726Z,1009.13
2017-06-21T08:45:33.727Z,1009.12
2017-06-21T08:46:33.650Z,1009.11
2017-06-21T08:47:33.651Z,1009.10
2017-06-21T08:48:33.639Z,1009.06
2017-06-21T08:49:33.649Z,1009.04
2017-06-21T08:50:33.712Z,1009.03
2017-06-21T08:51:33.725Z,1009.07
2017-06-21T08:52:33.642Z,1009.11
2017-06-21T08:53:33.697Z,1009.11
2017-06-21T08:54:33.740Z,1009.11
2017-06-21T08:55:33.734Z,1009.12
2017-06-21T08:56:33.740Z,1009.03
2017-06-21T08:57:33.650Z,1009.03
2017-06-21T08:58:33.744Z,1009.06
2017-06-21T08:59:33.657Z,1009.03
2017-06-21T09:00:33.729Z,1008.99
2017-06-21T09:01:33.744Z,1009.01
2017-06-21T09:02:33.649Z,1009.01
2017-06-21T09:03:33.728Z,1008.96
2017-06-21T09:04:33.713Z,1008.95
2017-06-21T09:05:33.654Z,1008.97
2017-06-21T09:06:33.740Z,1008.94
2017-06-21T09:07:33.740Z,1008.92
2017-06-21T09:08:33.742Z,1008.97
2017-06-21T09:09:33.743Z,1008.94
2017-06-21T09:10:33.740Z,1008.95
2017-06-21T09:11:33.657Z,1008.92
2017-06-21T09:12:33.739Z,1008.93
2017-06-21T09:13:33.750Z,1008.90
2017-06-21T09:14:33.656Z,1008.92
2017-06-21T09:15:33.743Z,1008.90
2017-06-21T09:16:33.743Z,1008.89
2017-06-21T09:17:33.735Z,1008.86
2017-06-21T09:18:33.654Z,1008.88
2017-06-21T09:19:33.661Z,1008.84
2017-06-21T09:20:33.746Z,1008.85
2017-06-21T09:21:33.706Z,1008.80
2017-06-21T09:22:33.725Z,1008.91
2017-06-21T09:23:33.656Z,1008.93
2017-06-21T09:24:33.674Z,1008.90
2017-06-21T09:25:33.663Z,1008.91
2017-06-21T09:26:33.750Z,1008.88
2017-06-21T09:27:33.672Z,1008.93
2017-06-21T09:28:33.671Z,1008.98
2017-06-21T09:29:33.846Z,1008.96
2017-06-21T09:30:33.733Z,1008.98
2017-06-21T09:31:33.732Z,1008.95
2017-06-21T09:32:33.753Z,1008.99
2017-06-21T09:33:33.667Z,1009.01
2017-06-21T09:34:33.735Z,1009.00
2017-06-21T09:35:33.661Z,1009.03
2017-06-21T09:36:33.738Z,1008.99
2017-06-21T09:37:33.739Z,1008.97
2017-06-21T09:38:33.733Z,1008.96
2017-06-21T09:39:33.739Z,1008.94
2017-06-21T09:40:33.743Z,1008.89
2017-06-21T09:41:33.738Z,1008.86
2017-06-21T09:42:33.744Z,1008.89
2017-06-21T09:43:33.742Z,1008.88
2017-06-21T09:44:33.739Z,1008.85
2017-06-21T09:45:33.741Z,1008.83
2017-06-21T09:46:33.740Z,1008.82
2017-06-21T09:47:33.739Z,1008.83
2017-06-21T09:48:33.824Z,1008.86
2017-06-21T09:49:33.744Z,1008.84
2017-06-21T09:50:33.746Z,1008.88
2017-06-21T09:51:33.749Z,1008.93
2017-06-21T09:52:33.756Z,1008.94
2017-06-21T09:53:33.745Z,1008.97
2017-06-21T09:54:33.706Z,1008.92
2017-06-21T09:55:33.763Z,1008.94
2017-06-21T09:56:33.772Z,1008.90
2017-06-21T09:57:33.767Z,1008.92
2017-06-21T09:58:33.681Z,1008.92
2017-06-21T09:59:33.691Z,1008.87
2017-06-21T10:00:33.689Z,1008.89
2017-06-21T10:01:33.757Z,1008.84
2017-06-21T10:02:33.693Z,1008.86
2017-06-21T10:03:33.724Z,1008.76
2017-06-21T10:04:33.770Z,1008.81
2017-06-21T10:05:33.679Z,1008.81
2017-06-21T10:06:33.780Z,1008.77
2017-06-21T10:07:33.689Z,1008.75
2017-06-21T10:08:33.732Z,1008.69
2017-06-21T10:09:33.764Z,1008.71
2017-06-21T10:10:33.682Z,1008.72
2017-06-21T10:11:33.777Z,1008.68
2017-06-21T10:12:33.694Z,1008.67
2017-06-21T10:13:33.776Z,1008.69
2017-06-21T10:14:33.751Z,1008.63
2017-06-21T10:15:33.738Z,1008.59
2017-06-21T10:16:33.700Z,1008.55
2017-06-21T10:17:33.739Z,1008.56
2017-06-21T10:18:33.781Z,1008.58
2017-06-21T10:19:33.780Z,1008.54
2017-06-21T10:20:33.892Z,1008.53
2017-06-21T10:21:33.779Z,1008.48
2017-06-21T10:22:33.697Z,1008.45
2017-06-21T10:23:33.772Z,1008.50
2017-06-21T10:24:33.764Z,1008.51
2017-06-21T10:25:33.769Z,1008.44
2017-06-21T10:26:33.768Z,1008.52
2017-06-21T10:27:33.763Z,1008.53
2017-06-21T10:28:33.768Z,1008.51
2017-06-21T10:29:33.766Z,1008.49
2017-06-21T10:30:33.765Z,1008.47
2017-06-21T10:31:33.782Z,1008.48
2017-06-21T10:32:33.767Z,1008.47
2017-06-21T10:33:33.856Z,1008.52
2017-06-21T10:34:33.767Z,1008.52
2017-06-21T10:35:33.768Z,1008.54
2017-06-21T10:36:33.766Z,1008.49
2017-06-21T10:37:33.769Z,1008.53
2017-06-21T10:38:33.770Z,1008.50
2017-06-21T10:39:33.695Z,1008.56
2017-06-21T10:40:33.771Z,1008.52
2017-06-21T10:41:33.770Z,1008.49
2017-06-21T10:42:33.774Z,1008.48
2017-06-21T10:43:33.773Z,1008.49
2017-06-21T10:44:33.790Z,1008.47
2017-06-21T10:45:33.792Z,1008.45
2017-06-21T10:46:33.793Z,1008.45
2017-06-21T10:47:33.790Z,1008.40
2017-06-21T10:48:33.779Z,1008.46
2017-06-21T10:49:33.713Z,1008.43
2017-06-21T10:50:33.714Z,1008.39
2017-06-21T10:51:33.775Z,1008.48
2017-06-21T10:52:33.790Z,1008.44
2017-06-21T10:53:33.717Z,1008.46
2017-06-21T10:54:33.795Z,1008.48
2017-06-21T10:55:33.756Z,1008.52
2017-06-21T10:56:33.789Z,1008.50
2017-06-21T10:57:33.759Z,1008.45
2017-06-21T10:58:33.762Z,1008.44
2017-06-21T10:59:33.802Z,1008.45
2017-06-21T11:00:33.768Z,1008.48
2017-06-21T11:01:33.808Z,1008.39
2017-06-21T11:02:33.803Z,1008.40
2017-06-21T11:03:33.912Z,1008.42
2017-06-21T11:04:33.804Z,1008.38
2017-06-21T11:05:33.804Z,1008.42
2017-06-21T11:06:33.807Z,1008.36
2017-06-21T11:07:33.807Z,1008.39
2017-06-21T11:08:33.787Z,1008.36
2017-06-21T11:09:33.763Z,1008.31
2017-06-21T11:10:33.817Z,1008.30
2017-06-21T11:11:33.723Z,1008.31
2017-06-21T11:12:33.732Z,1008.31
2017-06-21T11:13:33.787Z,1008.33
2017-06-21T11:14:33.817Z,1008.33
2017-06-21T11:15:33.719Z,1008.34
2017-06-21T11:16:33.810Z,1008.34
2017-06-21T11:17:33.815Z,1008.32
2017-06-21T11:18:33.722Z,1008.29
2017-06-21T11:19:33.813Z,1008.27
2017-06-21T11:20:33.807Z,1008.25
2017-06-21T11:21:33.729Z,1008.25
2017-06-21T11:22:33.791Z,1008.22
2017-06-21T11:23:33.810Z,1008.21
2017-06-21T11:24:33.733Z,1008.22
2017-06-21T11:25:33.813Z,1008.23
2017-06-21T11:26:33.814Z,1008.21
2017-06-21T11:27:33.816Z,1008.18
2017-06-21T11:28:33.734Z,1008.20
2017-06-21T11:29:33.822Z,1008.20
2017-06-21T11:30:33.788Z,1008.25
2017-06-21T11:31:33.825Z,1008.23
2017-06-21T11:32:33.809Z,1008.18
2017-06-21T11:33:33.798Z,1008.15
2017-06-21T11:34:33.790Z,1008.16
2017-06-21T11:35:33.791Z,1008.17
2017-06-21T11:36:33.784Z,1008.15
2017-06-21T11:37:33.819Z,1008.13
2017-06-21T11:38:33.789Z,1008.15
2017-06-21T11:39:33.791Z,1008.16
2017-06-21T11:40:33.790Z,1008.18
2017-06-21T11:41:33.793Z,1008.11
2017-06-21T11:42:33.794Z,1008.13
2017-06-21T11:43:33.793Z,1008.07
2017-06-21T11:44:33.792Z,1008.08
2017-06-21T11:45:33.794Z,1008.04
2017-06-21T11:46:33.793Z,1008.01
2017-06-21T11:47:33.793Z,1008.00
2017-06-21T11:48:33.793Z,1007.96
2017-06-21T11:49:33.795Z,1008.01
2017-06-21T11:50:33.796Z,1007.93
2017-06-21T11:51:33.796Z,1007.95
2017-06-21T11:52:33.798Z,1007.98
2017-06-21T11:53:33.796Z,1007.99
2017-06-21T11:54:33.800Z,1007.95
2017-06-21T11:55:33.833Z,1007.96
2017-06-21T11:56:33.746Z,1007.97
2017-06-21T11:57:33.751Z,1007.93
2017-06-21T11:58:33.739Z,1007.91
2017-06-21T11:59:33.746Z,1007.91
2017-06-21T12:00:33.837Z,1007.85
2017-06-21T12:01:33.792Z,1007.88
2017-06-21T12:02:33.833Z,1007.88
2017-06-21T12:03:33.845Z,1007.92
2017-06-21T12:04:33.744Z,1007.86
2017-06-21T12:05:33.815Z,1007.80
2017-06-21T12:06:33.816Z,1007.85